Time;durP1;ratioP1;P1;durP2;ratioP2;P2;SDS_P1;SDS_P2;PMS_P1;PMS_P2;Temp;Humidity;BMP_temperature;BMP_pressure;BME280_temperature;BME280_humidity;BME280_pressure;Samples;Min_cycle;Max_cycle;Signal;HPM_P1;HPM_P2
2023/05/14 00:02:20;;;;;;;452.73;425.90;;;11.00;57.80;;;;;;5013726;28;20465;-69
2023/05/14 00:04:45;;;;;;;412.47;388.63;;;11.00;57.40;;;;;;5014032;28;20256;-69
2023/05/14 00:07:11;;;;;;;435.03;408.13;;;11.00;58.20;;;;;;5014146;28;20180;-69
2023/05/14 00:09:36;;;;;;;482.97;454.80;;;11.00;58.30;;;;;;5013943;28;20569;-69
2023/05/14 00:12:02;;;;;;;377.30;353.73;;;11.00;59.00;;;;;;5013806;28;20573;-69
2023/05/14 00:14:28;;;;;;;341.07;320.33;;;11.00;57.70;;;;;;5013743;28;20204;-69
2023/05/14 00:16:53;;;;;;;393.57;369.47;;;11.00;58.10;;;;;;5013775;28;20168;-70
2023/05/14 00:19:19;;;;;;;448.07;420.77;;;11.00;58.90;;;;;;5013821;28;20696;-70
2023/05/14 00:21:46;;;;;;;413.67;388.43;;;11.00;59.60;;;;;;5013390;28;20203;-69
2023/05/14 00:24:11;;;;;;;442.00;415.13;;;11.00;59.80;;;;;;5011824;28;20215;-69
2023/05/14 00:26:37;;;;;;;409.30;384.33;;;10.90;60.00;;;;;;5013763;28;20412;-70
2023/05/14 00:29:03;;;;;;;425.20;400.57;;;10.90;60.00;;;;;;5012402;28;20180;-70
2023/05/14 00:31:28;;;;;;;421.77;396.17;;;10.90;59.80;;;;;;5013488;28;20183;-70
2023/05/14 00:33:54;;;;;;;431.13;406.30;;;10.90;59.60;;;;;;5013255;28;20620;-69
2023/05/14 00:36:20;;;;;;;421.47;396.67;;;11.00;59.90;;;;;;5013491;28;20653;-69
2023/05/14 00:38:45;;;;;;;441.33;416.13;;;11.00;60.00;;;;;;5013474;28;20427;-69
2023/05/14 00:41:11;;;;;;;407.10;382.67;;;11.00;59.20;;;;;;5013388;28;20184;-69
2023/05/14 00:43:36;;;;;;;396.80;373.03;;;11.00;59.20;;;;;;5013059;28;20292;-69
2023/05/14 00:46:02;;;;;;;483.37;455.07;;;11.10;59.40;;;;;;5013328;28;20168;-69
2023/05/14 00:48:28;;;;;;;458.33;434.03;;;11.00;58.90;;;;;;5013254;28;20226;-69
2023/05/14 00:50:54;;;;;;;471.10;443.83;;;11.10;58.70;;;;;;5012154;28;20178;-70
2023/05/14 00:53:20;;;;;;;398.90;374.60;;;11.10;58.60;;;;;;5011533;28;20827;-70
2023/05/14 00:55:47;;;;;;;414.27;389.00;;;11.10;58.10;;;;;;5013222;28;20407;-70
2023/05/14 00:58:13;;;;;;;360.73;339.33;;;11.10;58.10;;;;;;5013235;28;20172;-70
2023/05/14 01:00:40;;;;;;;424.60;398.83;;;11.10;58.70;;;;;;5012976;28;20418;-69
2023/05/14 01:03:07;;;;;;;411.47;385.60;;;11.20;58.50;;;;;;5011645;28;20315;-69
2023/05/14 01:05:59;;;;;;;451.90;423.33;;;11.20;58.00;;;;;;5011626;28;20706;-69
2023/05/14 01:08:31;;;;;;;393.20;369.23;;;11.20;58.20;;;;;;4985009;28;20526;-69
2023/05/14 01:11:05;;;;;;;448.67;421.50;;;11.20;57.90;;;;;;5012843;28;20429;-69
2023/05/14 01:13:49;;;;;;;429.83;404.33;;;11.20;57.90;;;;;;5012820;28;20443;-69
2023/05/14 01:16:17;;;;;;;402.23;379.10;;;11.20;57.90;;;;;;5012896;28;20419;-69
2023/05/14 01:18:45;;;;;;;424.77;400.43;;;11.20;58.90;;;;;;5011613;28;20448;-70
2023/05/14 01:21:31;;;;;;;376.23;352.83;;;11.20;59.00;;;;;;5012750;28;20436;-69
2023/05/14 01:23:57;;;;;;;399.50;374.90;;;11.10;58.80;;;;;;5012599;28;20542;-69
2023/05/14 01:26:23;;;;;;;385.93;361.73;;;11.10;59.30;;;;;;5012945;28;20453;-69
2023/05/14 01:28:51;;;;;;;384.27;361.20;;;11.10;59.00;;;;;;5012714;28;20411;-69
2023/05/14 01:31:23;;;;;;;396.70;372.63;;;11.00;59.30;;;;;;5011397;28;20223;-69
2023/05/14 01:33:50;;;;;;;359.27;336.87;;;11.00;58.60;;;;;;5012122;28;20952;-69
2023/05/14 01:36:16;;;;;;;403.47;378.10;;;10.90;58.90;;;;;;5011410;28;20438;-69
2023/05/14 01:38:44;;;;;;;350.00;327.67;;;10.90;59.10;;;;;;5011379;28;20426;-69
2023/05/14 01:41:11;;;;;;;388.93;366.83;;;10.90;58.70;;;;;;5012536;28;20174;-69
2023/05/14 01:43:37;;;;;;;439.53;412.90;;;10.80;59.90;;;;;;5010928;28;21047;-69
2023/05/14 01:46:03;;;;;;;388.33;365.53;;;10.80;60.30;;;;;;5013020;28;20438;-69
2023/05/14 01:48:29;;;;;;;387.67;364.43;;;10.80;60.40;;;;;;5012500;28;20412;-69
2023/05/14 01:50:55;;;;;;;406.73;383.30;;;10.80;60.10;;;;;;5012453;28;20483;-69
2023/05/14 01:53:20;;;;;;;423.30;397.50;;;10.70;60.40;;;;;;5012185;28;20241;-69
2023/05/14 01:55:46;;;;;;;410.73;385.63;;;10.70;60.80;;;;;;5012555;28;20415;-68
2023/05/14 01:58:11;;;;;;;352.70;331.50;;;10.60;61.00;;;;;;5011379;28;20184;-69
2023/05/14 02:00:37;;;;;;;386.47;364.27;;;10.60;61.70;;;;;;5013098;28;20660;-68
2023/05/14 02:03:02;;;;;;;406.13;383.43;;;10.50;63.40;;;;;;5012878;28;20215;-68
2023/05/14 02:05:28;;;;;;;430.83;405.33;;;10.60;64.00;;;;;;5013587;28;20179;-68
2023/05/14 02:07:54;;;;;;;391.77;369.50;;;10.60;64.20;;;;;;5012723;28;20641;-68
2023/05/14 02:10:19;;;;;;;391.33;368.73;;;10.70;63.20;;;;;;5011321;28;20188;-68
2023/05/14 02:12:45;;;;;;;357.43;335.17;;;10.70;62.90;;;;;;5012418;28;20183;-68
2023/05/14 02:15:11;;;;;;;422.03;397.53;;;10.70;63.40;;;;;;5012425;28;20642;-68
2023/05/14 02:17:36;;;;;;;384.20;360.70;;;10.80;63.70;;;;;;5011336;28;20530;-68
2023/05/14 02:20:02;;;;;;;378.70;355.53;;;10.80;62.80;;;;;;5012371;28;20232;-68
2023/05/14 02:22:28;;;;;;;371.10;350.07;;;10.90;63.20;;;;;;5012204;28;20704;-69
2023/05/14 02:24:54;;;;;;;373.37;349.97;;;10.90;62.20;;;;;;5011043;28;20439;-68
2023/05/14 02:27:20;;;;;;;379.37;355.37;;;11.00;62.10;;;;;;5010904;28;20640;-68
2023/05/14 02:29:46;;;;;;;378.20;354.33;;;11.00;62.10;;;;;;5012452;28;20449;-68
2023/05/14 02:32:12;;;;;;;362.80;338.63;;;11.10;62.10;;;;;;5011994;28;20201;-69
2023/05/14 02:34:37;;;;;;;404.73;379.23;;;11.20;62.30;;;;;;5012244;28;20681;-69
2023/05/14 02:37:03;;;;;;;392.63;367.50;;;11.20;61.00;;;;;;5012047;28;20596;-68
2023/05/14 02:39:29;;;;;;;352.53;330.03;;;11.20;60.50;;;;;;5010974;28;20194;-68
2023/05/14 02:41:55;;;;;;;352.30;330.60;;;11.30;60.50;;;;;;5011801;28;20256;-68
2023/05/14 02:44:21;;;;;;;545.60;512.30;;;11.30;59.40;;;;;;5010681;28;20554;-68
2023/05/14 02:46:46;;;;;;;395.03;372.07;;;11.30;60.50;;;;;;5014158;28;20176;-68
2023/05/14 02:49:12;;;;;;;360.30;337.93;;;11.40;58.40;;;;;;5015737;28;20177;-68
2023/05/14 02:51:37;;;;;;;386.23;363.77;;;11.40;57.50;;;;;;5013990;28;20548;-68
2023/05/14 02:54:03;;;;;;;359.07;336.93;;;11.40;57.10;;;;;;5015638;28;20275;-67
2023/05/14 02:56:29;;;;;;;392.17;367.90;;;11.40;57.50;;;;;;5015567;28;20230;-68
2023/05/14 02:58:54;;;;;;;357.20;334.43;;;11.40;56.40;;;;;;5015410;28;20184;-67
2023/05/14 03:01:20;;;;;;;412.23;385.57;;;11.40;57.50;;;;;;5015381;28;20522;-67
2023/05/14 03:03:45;;;;;;;388.63;365.67;;;11.50;58.20;;;;;;5015017;28;20720;-67
2023/05/14 03:06:11;;;;;;;358.80;336.73;;;11.50;57.40;;;;;;5015381;28;20176;-68
2023/05/14 03:08:36;;;;;;;396.73;373.27;;;11.50;56.50;;;;;;5014047;28;20184;-68
2023/05/14 03:11:02;;;;;;;402.90;378.90;;;11.50;57.00;;;;;;5015693;28;20176;-68
2023/05/14 03:13:27;;;;;;;375.40;353.77;;;11.60;55.90;;;;;;5015280;28;20222;-68
2023/05/14 03:15:53;;;;;;;375.90;354.00;;;11.60;56.50;;;;;;5015074;28;20581;-68
2023/05/14 03:18:20;;;;;;;448.70;421.87;;;11.60;56.50;;;;;;5015430;28;20266;-68
2023/05/14 03:20:45;;;;;;;392.83;368.77;;;11.60;55.70;;;;;;5013824;28;20172;-68
2023/05/14 03:23:11;;;;;;;391.70;367.47;;;11.60;56.00;;;;;;5014608;28;20514;-67
2023/05/14 03:25:37;;;;;;;408.00;383.53;;;11.60;55.80;;;;;;5015258;28;20535;-67
2023/05/14 03:28:03;;;;;;;403.23;378.37;;;11.60;55.60;;;;;;5014817;28;20420;-67
2023/05/14 03:30:28;;;;;;;387.03;364.40;;;11.60;55.30;;;;;;5014784;28;20181;-68
2023/05/14 03:32:54;;;;;;;405.87;381.37;;;11.60;55.30;;;;;;5014190;28;20417;-67
2023/05/14 03:35:20;;;;;;;379.50;356.73;;;11.60;55.70;;;;;;5014669;28;20654;-68
2023/05/14 03:37:45;;;;;;;412.43;387.27;;;11.50;55.00;;;;;;5013737;28;20176;-70
2023/05/14 03:40:11;;;;;;;452.80;426.23;;;11.50;56.10;;;;;;5014577;28;20175;-68
2023/05/14 03:42:37;;;;;;;467.77;439.20;;;11.50;56.30;;;;;;5012817;28;20259;-68
2023/05/14 03:45:03;;;;;;;490.77;461.50;;;11.60;55.50;;;;;;5014364;28;20510;-67
2023/05/14 03:47:28;;;;;;;420.07;395.07;;;11.60;55.80;;;;;;5014498;28;20180;-70
2023/05/14 03:49:54;;;;;;;399.63;374.77;;;11.60;56.30;;;;;;5014379;28;20169;-68
2023/05/14 03:52:19;;;;;;;357.53;335.73;;;11.60;57.00;;;;;;5014294;28;20213;-68
2023/05/14 03:54:45;;;;;;;356.47;335.80;;;11.60;57.70;;;;;;5014382;28;20192;-69
2023/05/14 03:57:10;;;;;;;399.00;375.47;;;11.60;57.40;;;;;;5014261;28;20229;-67
2023/05/14 03:59:36;;;;;;;412.47;388.67;;;11.60;57.80;;;;;;5014216;28;20177;-68
2023/05/14 04:02:02;;;;;;;405.10;382.10;;;11.70;57.20;;;;;;5012566;28;20215;-69
2023/05/14 04:04:27;;;;;;;380.70;358.43;;;11.70;57.20;;;;;;5012807;28;20306;-69
2023/05/14 04:06:53;;;;;;;386.47;363.87;;;11.70;57.40;;;;;;5014130;28;20696;-68
2023/05/14 04:09:18;;;;;;;431.33;404.90;;;11.60;57.90;;;;;;5014534;28;20260;-68
2023/05/14 04:11:44;;;;;;;411.40;386.93;;;11.70;57.90;;;;;;5012529;28;20222;-68
2023/05/14 04:14:09;;;;;;;354.60;332.13;;;11.60;58.40;;;;;;5013929;28;20612;-69
2023/05/14 04:16:35;;;;;;;397.20;373.80;;;11.60;57.70;;;;;;5012809;28;20693;-68
2023/05/14 04:19:05;;;;;;;434.40;408.20;;;11.70;57.50;;;;;;5013849;28;20203;-68
2023/05/14 04:21:30;;;;;;;411.37;386.60;;;11.70;57.80;;;;;;5013763;28;20214;-68
2023/05/14 04:23:56;;;;;;;411.77;386.67;;;11.70;56.20;;;;;;5013601;28;20486;-68
2023/05/14 04:26:22;;;;;;;431.93;405.57;;;11.70;57.80;;;;;;5013695;28;20190;-69
2023/05/14 04:28:47;;;;;;;390.83;368.00;;;11.70;57.50;;;;;;5012624;28;20188;-68
2023/05/14 04:31:14;;;;;;;337.70;316.30;;;11.70;56.90;;;;;;5012684;28;20222;-69
2023/05/14 04:33:39;;;;;;;399.70;375.40;;;11.70;56.10;;;;;;5035774;22;20237;-69
2023/05/14 04:36:06;;;;;;;404.67;380.40;;;11.70;56.30;;;;;;5012404;28;20507;-69
2023/05/14 04:38:31;;;;;;;413.17;388.13;;;11.80;56.50;;;;;;5013621;28;20179;-69
2023/05/14 04:40:57;;;;;;;404.57;379.83;;;11.80;56.00;;;;;;5012278;28;20811;-69
2023/05/14 04:43:23;;;;;;;363.20;340.40;;;11.80;55.20;;;;;;5011836;28;20294;-70
2023/05/14 04:45:48;;;;;;;450.70;424.60;;;11.80;55.90;;;;;;5012340;28;20427;-70
2023/05/14 04:48:14;;;;;;;439.97;413.10;;;11.80;56.10;;;;;;5012102;28;20585;-69
2023/05/14 04:50:40;;;;;;;418.27;392.70;;;11.80;55.90;;;;;;5013394;28;20201;-70
2023/05/14 04:53:05;;;;;;;385.80;363.63;;;11.80;54.80;;;;;;5011942;28;20535;-70
2023/05/14 04:55:31;;;;;;;370.67;347.43;;;11.80;55.40;;;;;;5013221;28;20252;-70
2023/05/14 04:57:56;;;;;;;472.43;442.60;;;11.70;56.10;;;;;;5011924;28;20184;-70
2023/05/14 05:00:22;;;;;;;477.47;446.73;;;11.80;56.30;;;;;;5011818;28;20647;-70
2023/05/14 05:02:47;;;;;;;417.60;393.63;;;11.80;56.30;;;;;;5012882;28;20200;-70
2023/05/14 05:05:13;;;;;;;410.90;386.30;;;11.80;55.40;;;;;;5011926;28;20258;-70
2023/05/14 05:07:39;;;;;;;382.90;359.23;;;11.80;55.50;;;;;;5011668;28;20531;-70
2023/05/14 05:10:05;;;;;;;367.97;345.00;;;11.90;55.70;;;;;;5011183;28;20181;-70
2023/05/14 05:12:30;;;;;;;411.50;386.93;;;11.90;54.90;;;;;;5011384;28;20182;-70
2023/05/14 05:14:56;;;;;;;397.17;372.20;;;11.90;54.70;;;;;;5011449;28;20444;-70
2023/05/14 05:17:23;;;;;;;411.77;387.87;;;12.00;54.30;;;;;;5012149;28;20554;-70
2023/05/14 05:19:49;;;;;;;392.13;367.67;;;11.90;54.10;;;;;;5011730;28;20420;-70
2023/05/14 05:22:15;;;;;;;429.87;404.10;;;11.90;55.10;;;;;;5011484;28;20473;-70
2023/05/14 05:24:40;;;;;;;405.03;381.17;;;12.00;54.50;;;;;;5011715;28;20206;-70
2023/05/14 05:27:06;;;;;;;355.53;333.77;;;11.90;53.90;;;;;;5012912;28;20676;-70
2023/05/14 05:29:31;;;;;;;425.97;398.63;;;11.90;54.10;;;;;;5011710;28;20203;-70
2023/05/14 05:31:57;;;;;;;371.60;347.70;;;11.90;54.80;;;;;;5011320;28;20263;-70
2023/05/14 05:34:23;;;;;;;445.67;417.63;;;11.90;54.90;;;;;;5011473;28;20226;-70
2023/05/14 05:36:48;;;;;;;416.83;391.33;;;11.90;55.10;;;;;;5011489;28;20427;-70
2023/05/14 05:39:14;;;;;;;464.00;436.23;;;11.90;54.40;;;;;;5011618;28;20531;-70
2023/05/14 05:41:41;;;;;;;434.17;406.03;;;11.80;54.70;;;;;;5012516;28;20711;-70
2023/05/14 05:44:06;;;;;;;436.13;409.73;;;11.70;58.10;;;;;;5012763;28;20207;-70
2023/05/14 05:46:32;;;;;;;340.27;318.90;;;11.80;58.00;;;;;;5011411;28;20421;-70
2023/05/14 05:48:57;;;;;;;384.90;360.23;;;11.80;56.40;;;;;;5011142;28;20239;-70
2023/05/14 05:51:23;;;;;;;407.83;382.07;;;11.90;56.00;;;;;;5010899;28;20589;-70
2023/05/14 05:53:49;;;;;;;356.23;334.67;;;11.90;56.90;;;;;;5010658;28;20230;-70
2023/05/14 05:56:14;;;;;;;415.60;390.10;;;11.90;57.40;;;;;;5012217;28;20248;-70
2023/05/14 05:58:40;;;;;;;407.53;383.67;;;11.90;56.50;;;;;;5010914;28;20274;-70
2023/05/14 06:01:05;;;;;;;517.37;485.10;;;11.90;56.70;;;;;;5011062;28;20183;-70
2023/05/14 06:03:31;;;;;;;422.73;398.13;;;11.90;55.90;;;;;;5010613;28;20239;-70
2023/05/14 06:05:56;;;;;;;387.37;363.97;;;11.90;57.30;;;;;;5012010;28;20254;-73
2023/05/14 06:08:22;;;;;;;403.53;380.23;;;12.20;56.70;;;;;;5012182;28;20179;-69
2023/05/14 06:10:47;;;;;;;421.10;396.63;;;12.30;55.00;;;;;;5010849;28;20255;-70
2023/05/14 06:13:13;;;;;;;388.73;366.47;;;12.40;53.50;;;;;;5010572;28;20732;-70
2023/05/14 06:15:39;;;;;;;390.60;366.80;;;12.50;51.80;;;;;;5012096;28;20265;-69
2023/05/14 06:18:04;;;;;;;445.63;417.80;;;12.50;51.30;;;;;;5010853;28;20226;-70
2023/05/14 06:20:30;;;;;;;442.80;415.70;;;12.40;52.60;;;;;;5010945;28;20179;-70
2023/05/14 06:22:55;;;;;;;443.67;415.13;;;12.40;50.60;;;;;;5014465;28;20635;-69
2023/05/14 06:25:21;;;;;;;359.77;338.53;;;12.20;51.40;;;;;;5015859;28;20194;-70
2023/05/14 06:27:46;;;;;;;417.23;392.30;;;12.10;54.40;;;;;;5016045;28;20171;-69
2023/05/14 06:30:12;;;;;;;392.63;368.63;;;12.00;53.60;;;;;;5015912;28;20226;-69
2023/05/14 06:32:38;;;;;;;453.87;426.80;;;12.00;53.80;;;;;;5015638;28;20181;-69
2023/05/14 06:35:04;;;;;;;386.00;363.30;;;11.90;54.10;;;;;;5012708;28;20523;-69
2023/05/14 06:37:30;;;;;;;413.50;388.53;;;11.90;55.50;;;;;;5006751;28;20174;-69
2023/05/14 06:39:56;;;;;;;391.83;368.40;;;12.00;54.90;;;;;;5015846;28;20422;-70
2023/05/14 06:42:21;;;;;;;398.43;374.70;;;12.00;54.10;;;;;;5015424;28;20179;-70
2023/05/14 06:44:47;;;;;;;375.43;352.60;;;12.10;54.10;;;;;;5015571;28;20661;-70
2023/05/14 06:47:12;;;;;;;431.03;405.50;;;12.30;53.40;;;;;;5015421;28;20183;-70
2023/05/14 06:49:38;;;;;;;405.53;379.13;;;12.20;53.30;;;;;;5014551;28;20187;-70
2023/05/14 06:52:04;;;;;;;403.03;378.50;;;12.10;53.70;;;;;;5013954;28;20527;-70
2023/05/14 06:54:30;;;;;;;395.37;370.20;;;12.10;53.20;;;;;;5024029;28;20247;-69
2023/05/14 06:56:56;;;;;;;413.47;389.50;;;12.10;53.20;;;;;;5023136;28;20424;-69
2023/05/14 06:59:22;;;;;;;419.43;393.43;;;12.20;54.30;;;;;;5021639;28;20243;-70
2023/05/14 07:01:47;;;;;;;460.27;433.00;;;12.10;53.20;;;;;;5016448;28;20417;-70
2023/05/14 07:04:13;;;;;;;375.83;352.93;;;11.90;54.20;;;;;;5017627;28;20239;-70
2023/05/14 07:06:38;;;;;;;442.67;415.87;;;12.00;54.50;;;;;;5016568;28;20669;-70
2023/05/14 07:09:05;;;;;;;379.37;356.70;;;12.10;55.20;;;;;;5018140;28;20183;-70
2023/05/14 07:11:30;;;;;;;414.63;388.20;;;12.10;55.00;;;;;;5016179;28;20173;-68
2023/05/14 07:13:56;;;;;;;446.40;419.87;;;12.30;54.70;;;;;;5015798;28;20948;-70
2023/05/14 07:16:21;;;;;;;373.40;350.90;;;12.30;52.90;;;;;;5014984;28;20251;-69
2023/05/14 07:18:47;;;;;;;417.33;391.57;;;12.30;52.90;;;;;;5015258;28;20182;-69
2023/05/14 07:21:12;;;;;;;469.60;439.63;;;12.50;53.60;;;;;;5007678;28;20198;-69
2023/05/14 07:23:38;;;;;;;405.80;381.17;;;12.50;51.20;;;;;;5011428;28;20269;-70
2023/05/14 07:26:05;;;;;;;432.03;406.60;;;12.40;51.10;;;;;;5012423;28;20246;-70
2023/05/14 07:28:30;;;;;;;445.60;418.40;;;12.50;52.10;;;;;;5012504;28;20180;-70
2023/05/14 07:30:56;;;;;;;423.57;397.63;;;12.50;50.70;;;;;;5011788;28;20438;-70
2023/05/14 07:33:22;;;;;;;461.27;432.93;;;12.50;51.20;;;;;;5012016;28;20459;-70
2023/05/14 07:35:48;;;;;;;401.23;376.17;;;12.70;49.00;;;;;;5011015;28;20287;-70
2023/05/14 07:38:14;;;;;;;453.20;425.67;;;12.80;48.80;;;;;;5012101;28;20463;-70
2023/05/14 07:40:40;;;;;;;495.77;465.93;;;13.10;48.80;;;;;;5013172;28;20221;-70
2023/05/14 07:43:05;;;;;;;465.73;438.20;;;13.20;45.90;;;;;;5012052;28;20457;-69
2023/05/14 07:45:31;;;;;;;463.27;435.43;;;13.50;44.40;;;;;;5013119;28;20629;-70
2023/05/14 07:47:56;;;;;;;547.27;514.23;;;13.60;42.20;;;;;;5012030;28;20192;-70
2023/05/14 07:50:22;;;;;;;498.43;468.43;;;13.80;41.90;;;;;;5012165;28;20281;-70
2023/05/14 07:52:48;;;;;;;529.57;497.77;;;14.10;40.30;;;;;;5013842;28;20553;-70
2023/05/14 07:55:13;;;;;;;454.80;427.97;;;14.30;39.50;;;;;;5008634;28;20203;-70
2023/05/14 07:57:39;;;;;;;554.67;518.03;;;14.60;37.90;;;;;;5008318;28;20206;-70
2023/05/14 08:00:08;;;;;;;571.77;536.13;;;14.60;35.60;;;;;;5010508;28;20184;-70
2023/05/14 08:02:34;;;;;;;581.27;543.50;;;14.80;35.00;;;;;;5009357;28;20190;-70
2023/05/14 08:05:00;;;;;;;506.33;474.70;;;15.00;33.50;;;;;;5008106;28;20443;-70
2023/05/14 08:07:28;;;;;;;639.17;596.07;;;15.10;33.40;;;;;;5010295;28;20180;-70
2023/05/14 08:09:53;;;;;;;549.27;514.90;;;15.30;31.90;;;;;;5009817;28;21148;-70
2023/05/14 08:12:19;;;;;;;574.50;538.20;;;15.30;33.20;;;;;;5008846;28;20476;-70
2023/05/14 08:14:45;;;;;;;616.00;576.40;;;15.50;30.50;;;;;;5010009;28;20204;-70
2023/05/14 08:17:10;;;;;;;584.67;549.20;;;15.60;30.40;;;;;;5009266;28;20928;-70
2023/05/14 08:19:36;;;;;;;648.07;603.90;;;15.50;31.30;;;;;;5009245;28;20760;-70
2023/05/14 08:22:02;;;;;;;808.07;753.90;;;15.50;30.80;;;;;;5008232;28;20184;-71
2023/05/14 08:24:28;;;;;;;631.83;589.83;;;15.60;30.70;;;;;;5008973;28;20287;-71
2023/05/14 08:26:54;;;;;;;634.10;591.87;;;15.80;28.20;;;;;;5009216;28;20470;-75
2023/05/14 08:29:20;;;;;;;675.33;629.00;;;15.70;28.60;;;;;;5008448;28;20188;-70
2023/05/14 08:31:46;;;;;;;650.53;606.87;;;16.10;26.80;;;;;;5008577;28;20510;-69
2023/05/14 08:34:11;;;;;;;712.87;663.27;;;16.10;26.80;;;;;;5007382;28;20334;-70
2023/05/14 08:36:40;;;;;;;646.87;605.20;;;16.20;26.70;;;;;;5009538;28;20188;-70
2023/05/14 08:39:08;;;;;;;670.97;625.23;;;16.10;26.80;;;;;;5008766;28;20188;-70
2023/05/14 08:41:35;;;;;;;675.67;630.67;;;16.10;26.80;;;;;;5012813;28;20423;-72
2023/05/14 08:44:09;;;;;;;640.93;598.67;;;16.20;26.80;;;;;;5011046;28;20819;-72
2023/05/14 08:46:37;;;;;;;647.50;605.83;;;16.50;25.50;;;;;;5013140;28;20442;-72
2023/05/14 08:49:27;;;;;;;573.13;537.63;;;16.90;25.20;;;;;;5012008;28;20423;-72
2023/05/14 08:51:53;;;;;;;664.80;619.37;;;17.50;24.60;;;;;;4991796;28;20423;-71
2023/05/14 08:54:21;;;;;;;638.93;597.10;;;18.30;21.10;;;;;;5012987;28;20530;-72
2023/05/14 08:56:47;;;;;;;700.33;651.47;;;18.40;19.80;;;;;;5011736;28;20423;-73
2023/05/14 08:59:13;;;;;;;615.20;575.57;;;17.90;21.00;;;;;;5012885;28;20510;-72
2023/05/14 09:01:44;;;;;;;660.63;617.83;;;17.50;22.30;;;;;;5012767;28;20419;-71
2023/05/14 09:04:11;;;;;;;636.17;593.97;;;17.20;23.10;;;;;;5011559;28;20888;-71
2023/05/14 09:06:37;;;;;;;731.00;680.27;;;17.30;23.00;;;;;;5012799;28;20427;-71
2023/05/14 09:09:03;;;;;;;628.37;587.27;;;17.30;22.70;;;;;;5012836;28;20411;-72
2023/05/14 09:11:29;;;;;;;651.37;608.97;;;17.00;22.90;;;;;;5012717;28;20502;-72
2023/05/14 09:13:55;;;;;;;725.77;677.40;;;16.90;23.10;;;;;;5011438;28;20438;-71
2023/05/14 09:16:21;;;;;;;651.97;608.83;;;16.80;23.00;;;;;;5012606;28;20261;-70
2023/05/14 09:18:47;;;;;;;605.73;568.60;;;16.60;24.40;;;;;;5012620;28;20262;-70
2023/05/14 09:21:14;;;;;;;575.63;540.90;;;16.50;25.00;;;;;;5012554;28;20870;-69
2023/05/14 09:23:43;;;;;;;679.13;632.87;;;16.10;25.20;;;;;;5012182;28;20692;-69
2023/05/14 09:26:08;;;;;;;618.27;577.90;;;16.30;25.00;;;;;;5012702;28;20422;-69
2023/05/14 09:28:34;;;;;;;662.40;616.93;;;16.40;25.40;;;;;;5011100;28;20423;-69
2023/05/14 09:31:01;;;;;;;658.77;613.20;;;16.40;25.00;;;;;;5012468;28;20187;-70
2023/05/14 09:33:27;;;;;;;701.47;655.33;;;16.40;24.60;;;;;;5012010;28;20271;-69
2023/05/14 09:36:00;;;;;;;620.70;580.60;;;16.10;24.60;;;;;;5012492;28;20423;-69
2023/05/14 09:38:30;;;;;;;688.00;643.33;;;16.20;25.80;;;;;;5012315;28;20530;-70
2023/05/14 09:40:56;;;;;;;588.70;551.27;;;16.20;25.10;;;;;;5012553;28;20468;-70
2023/05/14 09:43:22;;;;;;;683.50;638.87;;;16.10;24.20;;;;;;5010696;28;20521;-70
2023/05/14 09:45:47;;;;;;;692.47;645.20;;;16.30;25.50;;;;;;5012389;28;20897;-69
2023/05/14 09:48:13;;;;;;;807.17;751.10;;;17.00;24.50;;;;;;5012338;28;20531;-69
2023/05/14 09:50:43;;;;;;;665.77;620.07;;;17.60;22.90;;;;;;5011153;28;20186;-69
2023/05/14 09:53:09;;;;;;;694.00;644.77;;;18.10;20.90;;;;;;5010589;28;20196;-70
2023/05/14 09:55:36;;;;;;;670.50;624.23;;;18.10;19.40;;;;;;5012497;28;20434;-69
2023/05/14 09:58:02;;;;;;;690.30;640.07;;;17.90;19.50;;;;;;5012240;28;20422;-70
2023/05/14 10:00:30;;;;;;;695.90;648.43;;;17.60;19.20;;;;;;5012417;28;20427;-69
2023/05/14 10:02:57;;;;;;;726.63;678.43;;;17.40;19.10;;;;;;5011885;28;21180;-70
2023/05/14 10:05:23;;;;;;;758.30;705.90;;;17.00;20.90;;;;;;5012165;28;20438;-70
2023/05/14 10:07:52;;;;;;;619.27;578.23;;;17.20;21.20;;;;;;5012303;28;20410;-70
2023/05/14 10:10:19;;;;;;;642.87;601.30;;;17.50;20.90;;;;;;5011032;28;20904;-70
2023/05/14 10:12:52;;;;;;;674.13;629.03;;;17.50;19.20;;;;;;5010467;28;20797;-69
2023/05/14 10:15:32;;;;;;;609.00;570.20;;;17.60;19.30;;;;;;5010778;28;20534;-69
2023/05/14 10:18:02;;;;;;;562.27;528.80;;;17.70;19.30;;;;;;4991558;28;20812;-69
2023/05/14 10:20:28;;;;;;;668.67;622.27;;;18.30;18.70;;;;;;4990938;28;20451;-69
2023/05/14 10:22:55;;;;;;;814.50;755.03;;;18.70;18.20;;;;;;5000471;28;20459;-71
2023/05/14 10:25:21;;;;;;;652.50;609.33;;;19.10;16.70;;;;;;5002687;28;20867;-70
2023/05/14 10:27:47;;;;;;;636.00;594.57;;;19.00;17.00;;;;;;5006864;28;20445;-71
2023/05/14 10:30:13;;;;;;;698.17;649.83;;;19.50;17.20;;;;;;5012308;28;20418;-71
2023/05/14 10:32:40;;;;;;;777.10;720.77;;;19.50;15.30;;;;;;5013686;28;20423;-71
2023/05/14 10:35:26;;;;;;;664.37;620.57;;;19.40;15.80;;;;;;5035938;23;20232;-70
2023/05/14 10:37:52;;;;;;;788.43;732.47;;;19.70;15.50;;;;;;5011085;28;20426;-73
2023/05/14 10:40:18;;;;;;;708.73;658.87;;;19.80;15.40;;;;;;5011450;28;20725;-73
2023/05/14 10:42:45;;;;;;;694.47;645.80;;;20.00;14.40;;;;;;5011114;28;20450;-72
2023/05/14 10:45:15;;;;;;;664.77;621.77;;;20.00;12.80;;;;;;5011393;28;20192;-74
2023/05/14 10:47:46;;;;;;;757.03;701.63;;;19.50;13.60;;;;;;5011132;28;20423;-74
2023/05/14 10:50:13;;;;;;;735.63;683.37;;;19.70;14.70;;;;;;5011524;28;20404;-72
2023/05/14 10:52:45;;;;;;;702.70;653.60;;;20.00;14.30;;;;;;5011156;28;20929;-70
2023/05/14 10:55:15;;;;;;;831.13;767.10;;;19.70;13.90;;;;;;5015807;28;20433;-68
2023/05/14 10:57:43;;;;;;;726.40;673.83;;;19.60;13.70;;;;;;5030848;28;20521;-69
2023/05/14 11:00:09;;;;;;;739.63;687.87;;;19.70;14.60;;;;;;5030791;28;20420;-69
2023/05/14 11:02:40;;;;;;;837.37;775.20;;;19.70;14.20;;;;;;5030524;28;20428;-68
2023/05/14 11:05:14;;;;;;;677.07;631.13;;;19.80;13.30;;;;;;5030828;28;20461;-69
2023/05/14 11:07:47;;;;;;;668.20;621.80;;;19.20;14.20;;;;;;5033065;28;20468;-68
2023/05/14 11:10:16;;;;;;;701.47;652.53;;;19.40;14.10;;;;;;5034325;28;20460;-68
2023/05/14 11:12:46;;;;;;;797.97;738.90;;;19.70;13.30;;;;;;5034001;28;20790;-69
2023/05/14 11:15:16;;;;;;;673.13;627.47;;;20.20;12.20;;;;;;5034192;28;20435;-68
2023/05/14 11:17:42;;;;;;;917.67;847.97;;;20.10;12.10;;;;;;5034209;28;20410;-68
2023/05/14 11:20:09;;;;;;;729.37;676.80;;;19.80;13.00;;;;;;5034479;28;20686;-67
2023/05/14 11:22:36;;;;;;;691.80;643.67;;;19.50;12.20;;;;;;5033938;28;20429;-68
2023/05/14 11:25:02;;;;;;;788.83;730.70;;;19.10;13.30;;;;;;5033837;28;20808;-68
2023/05/14 11:27:30;;;;;;;691.00;643.93;;;18.80;14.00;;;;;;5032562;28;20513;-68
2023/05/14 11:29:56;;;;;;;700.87;652.87;;;18.30;14.80;;;;;;5033988;28;20446;-68
2023/05/14 11:32:22;;;;;;;798.83;739.00;;;18.20;16.00;;;;;;5033807;28;20414;-69
2023/05/14 11:34:48;;;;;;;800.13;741.23;;;18.00;15.90;;;;;;5032272;28;20457;-69
2023/05/14 11:37:15;;;;;;;792.93;736.87;;;18.10;15.70;;;;;;5032101;28;20194;-68
2023/05/14 11:40:01;;;;;;;834.47;773.17;;;18.10;16.00;;;;;;5019658;28;20673;-68
2023/05/14 11:42:26;;;;;;;782.23;728.90;;;18.40;16.20;;;;;;5016604;28;20432;-68
2023/05/14 11:44:56;;;;;;;652.67;610.30;;;18.90;15.30;;;;;;5015109;28;20455;-68
2023/05/14 11:47:21;;;;;;;798.97;741.27;;;19.70;13.30;;;;;;5014019;28;20542;-68
2023/05/14 11:49:47;;;;;;;649.97;606.47;;;20.10;12.10;;;;;;5014023;28;20505;-71
2023/05/14 11:52:14;;;;;;;719.20;668.27;;;20.10;12.10;;;;;;5013863;28;20259;-70
2023/05/14 11:54:42;;;;;;;804.43;742.80;;;19.70;13.00;;;;;;5014198;28;20449;-70
2023/05/14 11:57:10;;;;;;;743.83;690.27;;;19.30;13.00;;;;;;5014270;28;20450;-70
2023/05/14 11:59:36;;;;;;;692.27;642.80;;;19.10;12.90;;;;;;5017173;28;20415;-71
2023/05/14 12:02:06;;;;;;;867.07;800.77;;;18.70;13.40;;;;;;5016238;28;20415;-70
2023/05/14 12:04:31;;;;;;;906.67;835.73;;;18.50;14.00;;;;;;5015065;28;20536;-72
2023/05/14 12:06:59;;;;;;;711.07;664.20;;;18.90;14.10;;;;;;5014684;28;20418;-71